createdAt,value
2022-11-07T00:00:08.521Z,12.63
2022-11-07T00:02:34.985Z,10.20
2022-11-07T00:05:02.687Z,11.13
2022-11-07T00:07:29.449Z,12.77
2022-11-07T00:10:00.099Z,9.55
2022-11-07T00:12:26.658Z,10.18
2022-11-07T00:14:53.062Z,7.25
2022-11-07T00:17:19.809Z,8.43
2022-11-07T00:19:46.276Z,16.00
2022-11-07T00:22:12.729Z,8.30
2022-11-07T00:24:39.132Z,10.02
2022-11-07T00:27:05.683Z,9.85
2022-11-07T00:29:34.183Z,13.07
2022-11-07T00:32:00.594Z,11.93
2022-11-07T00:34:27.028Z,9.90
2022-11-07T00:36:53.453Z,14.52
2022-11-07T00:39:19.855Z,8.88
2022-11-07T00:41:49.509Z,12.18
2022-11-07T00:44:16.487Z,11.18
2022-11-07T00:46:43.101Z,10.48
2022-11-07T00:49:09.585Z,8.82
2022-11-07T00:51:36.022Z,10.90
2022-11-07T00:54:03.253Z,9.65
2022-11-07T00:56:29.783Z,20.10
2022-11-07T00:58:56.684Z,12.13
2022-11-07T01:01:24.948Z,9.60
2022-11-07T01:04:10.106Z,11.32
2022-11-07T01:06:38.422Z,11.05
2022-11-07T01:09:08.235Z,12.73
2022-11-07T01:11:36.386Z,10.43
2022-11-07T01:14:03.769Z,11.10
2022-11-07T01:16:30.741Z,8.85
2022-11-07T01:18:57.495Z,9.68
2022-11-07T01:21:23.952Z,10.43
2022-11-07T01:23:50.424Z,7.75
2022-11-07T01:26:17.087Z,8.43
2022-11-07T01:28:45.361Z,7.25
2022-11-07T01:31:12.867Z,12.60
2022-11-07T01:33:39.621Z,12.27
2022-11-07T01:36:08.813Z,8.35
2022-11-07T01:38:41.460Z,9.88
2022-11-07T01:41:27.223Z,10.25
2022-11-07T01:43:56.823Z,12.90
2022-11-07T01:46:34.030Z,10.52
2022-11-07T01:49:12.185Z,10.63
2022-11-07T01:51:44.039Z,8.82
2022-11-07T01:54:10.814Z,13.80
2022-11-07T01:56:38.770Z,8.73
2022-11-07T01:59:06.067Z,8.85
2022-11-07T02:01:32.781Z,13.27
2022-11-07T02:04:00.363Z,8.30
2022-11-07T02:06:34.826Z,6.22
2022-11-07T02:09:01.290Z,11.50
2022-11-07T02:11:27.739Z,6.53
2022-11-07T02:13:54.205Z,10.20
2022-11-07T02:16:20.876Z,15.35
2022-11-07T02:18:47.300Z,12.23
2022-11-07T02:21:30.629Z,9.15
2022-11-07T02:24:23.251Z,8.88
2022-11-07T02:26:49.722Z,11.38
2022-11-07T02:29:16.172Z,9.18
2022-11-07T02:31:42.573Z,17.65
2022-11-07T02:34:08.953Z,8.43
2022-11-07T02:36:35.330Z,9.25
2022-11-07T02:39:01.748Z,6.97
2022-11-07T02:41:30.616Z,11.77
2022-11-07T02:43:59.162Z,7.97
2022-11-07T02:46:26.256Z,11.73
2022-11-07T02:48:55.271Z,8.18
2022-11-07T02:51:21.704Z,13.32
2022-11-07T02:53:48.065Z,6.20
2022-11-07T02:56:14.519Z,13.85
2022-11-07T02:58:41.396Z,10.13
2022-11-07T03:01:08.006Z,8.48
2022-11-07T03:03:39.183Z,11.13
2022-11-07T03:06:06.205Z,8.82
2022-11-07T03:08:32.753Z,8.98
2022-11-07T03:10:59.160Z,10.20
2022-11-07T03:13:25.564Z,8.93
2022-11-07T03:15:52.191Z,8.13
2022-11-07T03:18:18.723Z,8.43
2022-11-07T03:20:45.200Z,9.23
2022-11-07T03:23:12.490Z,7.85
2022-11-07T03:25:39.339Z,10.77
2022-11-07T03:28:05.818Z,10.88
2022-11-07T03:30:34.938Z,9.52
2022-11-07T03:33:01.353Z,9.32
2022-11-07T03:35:27.997Z,8.57
2022-11-07T03:37:54.370Z,6.90
2022-11-07T03:40:20.702Z,8.07
2022-11-07T03:42:47.084Z,9.13
2022-11-07T03:45:14.345Z,12.30
2022-11-07T03:47:43.639Z,9.90
2022-11-07T03:50:11.429Z,5.88
2022-11-07T03:52:38.157Z,8.98
2022-11-07T03:55:04.662Z,8.93
2022-11-07T03:57:31.107Z,7.22
2022-11-07T03:59:57.444Z,5.03
2022-11-07T04:02:23.885Z,7.90
2022-11-07T04:04:50.342Z,11.05
2022-11-07T04:07:17.833Z,9.48
2022-11-07T04:09:44.294Z,5.75
2022-11-07T04:12:45.852Z,11.38
2022-11-07T04:15:30.839Z,11.15
2022-11-07T04:17:57.208Z,5.50
2022-11-07T04:20:23.657Z,7.72
2022-11-07T04:22:50.078Z,8.30
2022-11-07T04:25:16.552Z,11.52
2022-11-07T04:27:42.938Z,7.22
2022-11-07T04:30:20.177Z,8.05
2022-11-07T04:32:49.364Z,8.68
2022-11-07T04:35:16.277Z,6.22
2022-11-07T04:37:43.080Z,8.75
2022-11-07T04:40:10.181Z,6.03
2022-11-07T04:42:36.645Z,10.05
2022-11-07T04:45:03.571Z,6.68
2022-11-07T04:47:29.993Z,6.05
2022-11-07T04:49:56.375Z,7.03
2022-11-07T04:52:22.770Z,6.05
2022-11-07T04:54:49.083Z,3.38
2022-11-07T04:57:15.628Z,7.28
2022-11-07T04:59:42.095Z,4.45
2022-11-07T05:02:14.190Z,7.47
2022-11-07T05:04:40.962Z,3.75
2022-11-07T05:07:07.862Z,4.70
2022-11-07T05:09:34.561Z,5.00
2022-11-07T05:12:01.470Z,3.25
2022-11-07T05:14:27.775Z,4.78
2022-11-07T05:16:54.591Z,3.20
2022-11-07T05:19:21.105Z,8.35
2022-11-07T05:21:47.585Z,6.35
2022-11-07T05:24:14.406Z,8.52
2022-11-07T05:26:40.847Z,4.13
2022-11-07T05:29:09.120Z,4.63
2022-11-07T05:31:35.516Z,3.92
2022-11-07T05:34:01.831Z,5.38
2022-11-07T05:36:28.193Z,4.18
2022-11-07T05:38:54.570Z,3.58
2022-11-07T05:41:22.035Z,5.78
2022-11-07T05:43:48.577Z,6.65
2022-11-07T05:46:15.016Z,6.15
2022-11-07T05:48:41.435Z,4.85
2022-11-07T05:51:08.626Z,4.22
2022-11-07T05:53:35.397Z,4.00
2022-11-07T05:56:01.885Z,4.07
2022-11-07T05:58:28.235Z,5.40
2022-11-07T06:00:54.762Z,3.92
2022-11-07T06:03:21.396Z,3.67
2022-11-07T06:05:48.170Z,3.20
2022-11-07T06:08:39.440Z,3.72
2022-11-07T06:11:06.145Z,3.45
2022-11-07T06:13:32.543Z,2.80
2022-11-07T06:15:58.899Z,2.85
2022-11-07T06:18:25.253Z,2.75
2022-11-07T06:20:51.594Z,5.40
2022-11-07T06:23:18.654Z,2.90
2022-11-07T06:25:45.333Z,6.47
2022-11-07T06:28:14.497Z,3.47
2022-11-07T06:30:40.927Z,5.28
2022-11-07T06:33:08.536Z,2.55
2022-11-07T06:35:35.185Z,4.22
2022-11-07T06:38:03.447Z,2.45
2022-11-07T06:40:29.895Z,3.70
2022-11-07T06:42:56.245Z,3.25
2022-11-07T06:45:25.217Z,2.65
2022-11-07T06:47:54.956Z,2.22
2022-11-07T06:50:21.394Z,2.17
2022-11-07T06:52:47.765Z,2.42
2022-11-07T06:55:14.118Z,2.17
2022-11-07T06:57:40.483Z,2.50
2022-11-07T07:00:09.093Z,1.77
2022-11-07T07:02:57.379Z,1.55
2022-11-07T07:05:24.635Z,2.40
2022-11-07T07:07:50.973Z,1.20
2022-11-07T07:10:17.342Z,0.85
2022-11-07T07:12:44.520Z,2.25
2022-11-07T07:15:10.967Z,1.58
2022-11-07T07:17:37.385Z,1.67
2022-11-07T07:20:05.268Z,1.30
2022-11-07T07:22:31.673Z,1.42
2022-11-07T07:24:58.004Z,2.15
2022-11-07T07:27:24.396Z,2.67
2022-11-07T07:29:53.413Z,1.80
2022-11-07T07:32:20.420Z,2.60
2022-11-07T07:34:46.778Z,2.50
2022-11-07T07:37:13.096Z,3.65
2022-11-07T07:39:39.425Z,4.65
2022-11-07T07:42:05.905Z,3.83
2022-11-07T07:44:32.380Z,6.00
2022-11-07T07:46:58.747Z,3.75
2022-11-07T07:49:25.150Z,4.60
2022-11-07T07:51:51.544Z,5.65
2022-11-07T07:54:17.933Z,4.00
2022-11-07T07:56:44.279Z,8.73
2022-11-07T07:59:10.650Z,5.60
2022-11-07T08:01:37.224Z,4.28
2022-11-07T08:04:03.719Z,5.18
2022-11-07T08:06:30.511Z,5.93
2022-11-07T08:08:56.928Z,7.68
2022-11-07T08:11:26.102Z,4.78
2022-11-07T08:13:53.659Z,8.05
2022-11-07T08:16:21.504Z,4.82
2022-11-07T08:18:47.882Z,8.02
2022-11-07T08:21:14.317Z,12.05
2022-11-07T08:23:40.723Z,12.98
2022-11-07T08:26:07.110Z,8.80
2022-11-07T08:28:36.613Z,11.65
2022-11-07T08:31:07.888Z,12.02
2022-11-07T08:33:34.464Z,12.18
2022-11-07T08:36:01.867Z,12.45
2022-11-07T08:38:29.506Z,10.10
2022-11-07T08:40:56.242Z,13.95
2022-11-07T08:43:23.005Z,13.50
2022-11-07T08:45:49.681Z,13.70
2022-11-07T08:48:16.579Z,11.25
2022-11-07T08:50:43.257Z,12.80
2022-11-07T08:53:09.764Z,11.38
2022-11-07T08:55:36.658Z,8.32
2022-11-07T08:58:04.768Z,13.25
2022-11-07T09:00:31.135Z,11.20
2022-11-07T09:05:49.942Z,10.15
2022-11-07T09:08:16.604Z,9.77
2022-11-07T09:10:43.060Z,8.00
2022-11-07T09:13:09.563Z,8.60
2022-11-07T09:15:35.930Z,9.25
2022-11-07T09:18:03.825Z,15.73
2022-11-07T09:20:30.248Z,10.90
2022-11-07T09:22:58.237Z,6.43
2022-11-07T09:25:24.624Z,15.25
2022-11-07T09:27:51.774Z,9.98
2022-11-07T09:30:21.467Z,11.73
2022-11-07T09:32:47.893Z,20.48
2022-11-07T09:35:14.705Z,11.45
2022-11-07T09:37:41.878Z,10.23
2022-11-07T09:40:28.624Z,11.48
2022-11-07T09:42:58.148Z,10.55
2022-11-07T09:45:24.607Z,12.68
2022-11-07T09:47:55.298Z,8.70
2022-11-07T09:50:30.888Z,14.38
2022-11-07T09:53:01.403Z,9.38
2022-11-07T09:55:30.427Z,9.40
2022-11-07T09:58:12.473Z,14.25
2022-11-07T10:00:40.102Z,13.50
2022-11-07T10:03:10.177Z,10.57
2022-11-07T10:05:39.383Z,9.27
2022-11-07T10:08:14.705Z,10.10
2022-11-07T10:10:46.819Z,10.85
2022-11-07T10:13:28.862Z,10.15
2022-11-07T10:16:14.074Z,12.25
2022-11-07T10:18:46.601Z,6.38
2022-11-07T10:21:38.789Z,16.65
2022-11-07T10:24:11.956Z,11.27
2022-11-07T10:26:41.901Z,9.82
2022-11-07T10:29:12.343Z,14.73
2022-11-07T10:31:40.242Z,4.18
2022-11-07T10:34:20.921Z,6.93
2022-11-07T10:36:47.361Z,5.78
2022-11-07T10:39:18.590Z,2.72
2022-11-07T10:41:48.974Z,8.57
2022-11-07T10:44:22.982Z,6.75
2022-11-07T10:46:53.220Z,2.83
2022-11-07T10:49:22.601Z,2.38
2022-11-07T10:51:50.988Z,3.05
2022-11-07T10:54:21.914Z,5.20
2022-11-07T10:57:00.998Z,4.97
2022-11-07T10:59:33.072Z,6.03
2022-11-07T11:02:03.285Z,3.65
2022-11-07T11:04:30.981Z,1.20
2022-11-07T11:06:58.578Z,6.18
2022-11-07T11:09:31.863Z,1.58
2022-11-07T11:11:58.558Z,2.58
2022-11-07T11:14:28.271Z,2.20
2022-11-07T11:16:56.170Z,5.70
2022-11-07T11:19:23.857Z,2.22
2022-11-07T11:21:51.705Z,1.85
2022-11-07T11:24:23.000Z,1.92
2022-11-07T11:26:50.991Z,2.92
2022-11-07T11:29:40.664Z,2.95
2022-11-07T11:32:12.595Z,4.90
2022-11-07T11:35:11.504Z,5.05
2022-11-07T11:37:41.823Z,2.97
2022-11-07T11:40:17.126Z,6.85
2022-11-07T11:42:47.421Z,3.83
2022-11-07T11:45:16.914Z,7.28
2022-11-07T11:48:06.702Z,4.75
2022-11-07T11:50:38.623Z,7.45
2022-11-07T11:53:05.503Z,7.28
2022-11-07T11:55:38.252Z,3.58
2022-11-07T11:58:10.279Z,5.85
2022-11-07T12:00:43.760Z,6.80
2022-11-07T12:03:19.536Z,6.70
2022-11-07T12:06:04.821Z,3.70
2022-11-07T12:08:39.674Z,4.93
2022-11-07T12:11:06.099Z,2.53
2022-11-07T12:13:51.280Z,4.88
2022-11-07T12:16:29.788Z,2.25
2022-11-07T12:19:07.441Z,6.70
2022-11-07T12:21:42.486Z,1.85
2022-11-07T12:24:32.574Z,4.07
2022-11-07T12:27:05.489Z,5.13
2022-11-07T12:29:47.126Z,3.88
2022-11-07T12:32:21.828Z,3.10
2022-11-07T12:34:59.165Z,4.05
2022-11-07T12:37:38.427Z,1.85
2022-11-07T12:40:10.695Z,5.65
2022-11-07T12:42:46.570Z,3.05
2022-11-07T12:45:17.765Z,3.22
2022-11-07T12:47:47.232Z,3.67
2022-11-07T12:50:27.555Z,8.07
2022-11-07T12:52:53.884Z,2.30
2022-11-07T12:55:23.494Z,4.32
2022-11-07T12:57:51.348Z,3.75
2022-11-07T13:00:26.150Z,3.55
2022-11-07T13:03:06.705Z,4.57
2022-11-07T13:05:48.186Z,5.22
2022-11-07T13:08:22.534Z,6.00
2022-11-07T13:10:54.792Z,10.63
2022-11-07T13:13:21.158Z,2.85
2022-11-07T13:16:14.040Z,3.67
2022-11-07T13:18:34.187Z,9.13
2022-11-07T13:21:05.543Z,7.82
2022-11-07T13:23:32.201Z,6.15
2022-11-07T13:25:59.901Z,2.90
2022-11-07T13:28:29.235Z,7.93
2022-11-07T13:30:57.329Z,4.47
2022-11-07T13:33:28.243Z,7.70
2022-11-07T13:38:23.235Z,6.18
2022-11-07T13:40:52.641Z,3.42
2022-11-07T13:43:19.176Z,10.18
2022-11-07T13:45:45.824Z,4.85
2022-11-07T13:48:16.847Z,6.25
2022-11-07T13:51:05.216Z,5.53
2022-11-07T13:53:37.483Z,4.80
2022-11-07T13:56:09.531Z,4.82
2022-11-07T13:58:37.314Z,4.85
2022-11-07T14:01:11.052Z,4.05
2022-11-07T14:03:37.818Z,8.60
2022-11-07T14:06:04.757Z,6.53
2022-11-07T14:08:33.174Z,8.07
2022-11-07T14:11:01.869Z,3.80
2022-11-07T14:13:28.217Z,6.68
2022-11-07T14:15:59.268Z,9.70
2022-11-07T14:18:28.059Z,6.25
2022-11-07T14:20:55.576Z,4.88
2022-11-07T14:23:26.101Z,3.97
2022-11-07T14:25:58.723Z,5.40
2022-11-07T14:28:29.346Z,5.38
2022-11-07T14:30:55.747Z,8.45
2022-11-07T14:33:23.025Z,7.43
2022-11-07T14:35:51.623Z,5.53
2022-11-07T14:38:25.095Z,10.65
2022-11-07T14:40:55.508Z,6.55
2022-11-07T14:43:23.160Z,6.75
2022-11-07T14:46:11.951Z,9.00
2022-11-07T14:48:38.200Z,10.88
2022-11-07T14:51:12.607Z,8.00
2022-11-07T14:53:42.738Z,8.05
2022-11-07T14:56:12.351Z,12.00
2022-11-07T14:58:38.753Z,6.70
2022-11-07T15:01:11.730Z,6.25
2022-11-07T15:03:51.994Z,5.50
2022-11-07T15:06:20.986Z,7.78
2022-11-07T15:08:55.257Z,10.90
2022-11-07T15:11:25.171Z,12.52
2022-11-07T15:13:52.012Z,10.65
2022-11-07T15:16:19.373Z,11.15
2022-11-07T15:18:56.789Z,14.18
2022-11-07T15:21:26.340Z,13.60
2022-11-07T15:23:54.503Z,5.93
2022-11-07T15:26:21.798Z,9.00
2022-11-07T15:28:49.323Z,9.93
2022-11-07T15:31:21.668Z,10.85
2022-11-07T15:33:48.417Z,5.50
2022-11-07T15:36:16.036Z,8.32
2022-11-07T15:38:42.754Z,11.73
2022-11-07T15:41:09.257Z,15.65
2022-11-07T15:43:35.642Z,10.02
2022-11-07T15:46:02.692Z,9.88
2022-11-07T15:48:36.914Z,11.13
2022-11-07T15:51:06.440Z,9.68
2022-11-07T15:53:33.940Z,15.13
2022-11-07T15:56:01.351Z,9.02
2022-11-07T15:58:30.989Z,10.52
2022-11-07T16:00:58.488Z,17.10
2022-11-07T16:03:25.554Z,15.27
2022-11-07T16:05:53.162Z,9.35
2022-11-07T16:08:22.298Z,9.48
2022-11-07T16:10:50.012Z,11.52
2022-11-07T16:13:16.450Z,10.18
2022-11-07T16:15:45.608Z,9.00
2022-11-07T16:18:20.011Z,11.77
2022-11-07T16:20:47.240Z,7.00
2022-11-07T16:23:13.801Z,9.02
2022-11-07T16:25:44.105Z,11.45
2022-11-07T16:28:19.237Z,5.53
2022-11-07T16:30:45.750Z,17.00
2022-11-07T16:33:12.302Z,16.80
2022-11-07T16:35:39.009Z,15.15
2022-11-07T16:38:11.364Z,9.02
2022-11-07T16:40:40.075Z,10.05
2022-11-07T16:43:06.441Z,11.15
2022-11-07T16:45:35.146Z,13.95
2022-11-07T16:48:01.958Z,17.02
2022-11-07T16:50:28.345Z,14.05
2022-11-07T16:52:57.759Z,9.10
2022-11-07T16:55:24.430Z,10.50
2022-11-07T16:57:50.829Z,10.50
2022-11-07T17:00:18.793Z,6.40
2022-11-07T17:02:45.366Z,9.30
2022-11-07T17:05:11.898Z,9.50
2022-11-07T17:07:40.747Z,14.57
2022-11-07T17:10:07.956Z,13.00
2022-11-07T17:12:34.459Z,14.02
2022-11-07T17:15:00.994Z,12.60
2022-11-07T17:17:28.991Z,10.10
2022-11-07T17:19:55.487Z,7.53
2022-11-07T17:22:21.888Z,13.32
2022-11-07T17:24:48.441Z,10.95
2022-11-07T17:27:25.135Z,9.48
2022-11-07T17:29:52.319Z,11.38
2022-11-07T17:32:19.130Z,9.95
2022-11-07T17:34:46.759Z,9.93
2022-11-07T17:37:21.052Z,21.08
2022-11-07T17:39:48.370Z,13.55
2022-11-07T17:42:15.013Z,18.08
2022-11-07T17:44:41.664Z,10.68
2022-11-07T17:47:22.080Z,9.18
2022-11-07T17:49:48.405Z,23.17
2022-11-07T17:52:14.782Z,12.50
2022-11-07T17:54:41.213Z,12.93
2022-11-07T17:57:08.955Z,11.50
2022-11-07T17:59:35.361Z,23.90
2022-11-07T18:02:09.102Z,14.55
2022-11-07T18:04:36.163Z,13.35
2022-11-07T18:07:03.339Z,13.50
2022-11-07T18:09:31.251Z,18.13
2022-11-07T18:11:57.633Z,16.90
2022-11-07T18:14:25.163Z,12.07
2022-11-07T18:16:51.551Z,19.67
2022-11-07T18:19:19.031Z,14.52
2022-11-07T18:21:45.833Z,17.25
2022-11-07T18:24:12.275Z,14.98
2022-11-07T18:26:39.008Z,14.80
2022-11-07T18:29:07.307Z,19.40
2022-11-07T18:31:34.049Z,19.50
2022-11-07T18:34:01.946Z,17.73
2022-11-07T18:36:30.717Z,19.58
2022-11-07T18:39:04.537Z,21.75
2022-11-07T18:41:30.949Z,14.27
2022-11-07T18:44:03.182Z,17.02
2022-11-07T18:46:31.134Z,17.83
2022-11-07T18:48:59.115Z,24.80
2022-11-07T18:51:25.530Z,19.38
2022-11-07T18:53:52.698Z,30.60
2022-11-07T18:56:20.177Z,19.35
2022-11-07T18:58:47.073Z,17.77
2022-11-07T19:01:14.764Z,12.07
2022-11-07T19:03:41.786Z,26.35
2022-11-07T19:06:12.543Z,19.85
2022-11-07T19:08:39.878Z,18.13
2022-11-07T19:11:08.104Z,13.63
2022-11-07T19:13:38.825Z,23.75
2022-11-07T19:16:11.669Z,17.42
2022-11-07T19:18:38.622Z,15.50
2022-11-07T19:21:05.183Z,15.07
2022-11-07T19:23:31.948Z,12.98
2022-11-07T19:25:58.336Z,21.83
2022-11-07T19:28:24.750Z,19.75
2022-11-07T19:30:51.138Z,23.33
2022-11-07T19:33:27.734Z,17.38
2022-11-07T19:36:00.443Z,20.98
2022-11-07T19:38:27.048Z,13.82
2022-11-07T19:40:55.992Z,20.83
2022-11-07T19:43:25.382Z,13.73
2022-11-07T19:45:51.811Z,16.08
2022-11-07T19:48:19.064Z,21.52
2022-11-07T19:50:46.348Z,17.75
2022-11-07T19:53:12.772Z,20.40
2022-11-07T19:55:39.270Z,19.13
2022-11-07T19:58:05.628Z,16.02
2022-11-07T20:00:35.031Z,17.27
2022-11-07T20:03:01.539Z,16.50
2022-11-07T20:05:34.107Z,16.83
2022-11-07T20:08:05.055Z,15.40
2022-11-07T20:10:34.159Z,19.90
2022-11-07T20:13:00.567Z,14.95
2022-11-07T20:15:26.950Z,16.65
2022-11-07T20:18:17.030Z,16.52
2022-11-07T20:20:43.562Z,16.20
2022-11-07T20:23:12.820Z,15.20
2022-11-07T20:25:42.339Z,25.05
2022-11-07T20:28:09.392Z,17.05
2022-11-07T20:30:38.169Z,14.32
2022-11-07T20:33:04.691Z,17.02
2022-11-07T20:35:31.072Z,22.02
2022-11-07T20:37:57.421Z,23.63
2022-11-07T20:40:29.079Z,11.13
2022-11-07T20:42:55.762Z,15.32
2022-11-07T20:45:22.314Z,20.45
2022-11-07T20:47:51.571Z,18.20
2022-11-07T20:50:18.498Z,18.70
2022-11-07T20:53:03.667Z,11.77
2022-11-07T20:55:30.275Z,19.55
2022-11-07T20:57:59.527Z,12.80
2022-11-07T21:00:26.025Z,18.88
2022-11-07T21:02:52.932Z,11.73
2022-11-07T21:05:19.370Z,19.10
2022-11-07T21:07:49.923Z,16.00
2022-11-07T21:10:16.539Z,14.25
2022-11-07T21:12:43.818Z,14.32
2022-11-07T21:15:12.566Z,16.35
2022-11-07T21:17:39.071Z,15.30
2022-11-07T21:20:05.870Z,19.27
2022-11-07T21:22:32.547Z,19.90
2022-11-07T21:25:00.595Z,12.55
2022-11-07T21:27:26.942Z,18.13
2022-11-07T21:29:53.291Z,18.27
2022-11-07T21:32:25.477Z,18.23
2022-11-07T21:34:52.074Z,17.85
2022-11-07T21:37:18.476Z,25.75
2022-11-07T21:39:44.892Z,18.90
2022-11-07T21:42:12.788Z,18.13
2022-11-07T21:44:41.494Z,19.83
2022-11-07T21:47:07.886Z,17.67
2022-11-07T21:49:34.278Z,22.55
2022-11-07T21:52:00.769Z,17.73
2022-11-07T21:54:27.138Z,14.50
2022-11-07T21:56:53.562Z,23.98
2022-11-07T21:59:19.964Z,19.98
2022-11-07T22:01:48.585Z,13.68
2022-11-07T22:04:15.393Z,27.23
2022-11-07T22:06:43.632Z,16.95
2022-11-07T22:09:10.980Z,17.13
2022-11-07T22:11:37.378Z,29.55
2022-11-07T22:14:06.172Z,18.60
2022-11-07T22:16:32.754Z,18.52
2022-11-07T22:19:00.239Z,16.77
2022-11-07T22:21:27.185Z,17.52
2022-11-07T22:23:53.570Z,19.10
2022-11-07T22:26:21.372Z,19.48
2022-11-07T22:28:48.426Z,19.02
2022-11-07T22:31:19.969Z,16.35
2022-11-07T22:33:47.069Z,15.32
2022-11-07T22:36:13.833Z,22.23
2022-11-07T22:38:40.614Z,16.23
2022-11-07T22:41:12.683Z,23.42
2022-11-07T22:43:39.052Z,31.20
2022-11-07T22:46:06.513Z,15.45
2022-11-07T22:48:33.298Z,22.17
2022-11-07T22:51:04.727Z,17.75
2022-11-07T22:53:31.197Z,20.17
2022-11-07T22:55:57.702Z,20.90
2022-11-07T22:58:24.660Z,23.38
2022-11-07T23:00:51.078Z,16.17
2022-11-07T23:03:17.574Z,18.27
2022-11-07T23:05:46.209Z,13.02
2022-11-07T23:08:17.048Z,17.60
2022-11-07T23:13:09.949Z,18.50
2022-11-07T23:15:36.278Z,27.67
2022-11-07T23:18:02.645Z,18.75
2022-11-07T23:20:47.730Z,24.75
2022-11-07T23:23:14.075Z,19.10
2022-11-07T23:25:40.445Z,20.02
2022-11-07T23:28:07.475Z,27.23
2022-11-07T23:30:33.906Z,20.70
2022-11-07T23:33:00.267Z,22.98
2022-11-07T23:35:26.832Z,19.58
2022-11-07T23:37:54.968Z,22.35
2022-11-07T23:40:21.309Z,25.67
2022-11-07T23:42:47.684Z,17.95
2022-11-07T23:45:32.883Z,23.17
2022-11-07T23:48:18.308Z,20.77
2022-11-07T23:51:03.513Z,15.45
2022-11-07T23:53:52.176Z,15.27
2022-11-07T23:56:21.173Z,23.80
2022-11-07T23:59:06.174Z,19.00
